sensor_id;sensor_type;location;lat;lon;timestamp;pressure;altitude;pressure_sealevel;temperature;humidity
21357;BME280;10836;53.068;18.234;2022-07-22T00:00:54;101033.41;;;23.37;64.36
21357;BME280;10836;53.068;18.234;2022-07-22T00:03:21;101021.94;;;23.26;65.11
21357;BME280;10836;53.068;18.234;2022-07-22T00:05:48;101022.50;;;23.32;65.08
21357;BME280;10836;53.068;18.234;2022-07-22T00:08:15;101032.97;;;23.22;65.40
21357;BME280;10836;53.068;18.234;2022-07-22T00:10:43;101033.91;;;23.14;66.28
21357;BME280;10836;53.068;18.234;2022-07-22T00:13:10;101045.28;;;23.09;66.32
21357;BME280;10836;53.068;18.234;2022-07-22T00:15:38;101039.59;;;23.06;66.50
21357;BME280;10836;53.068;18.234;2022-07-22T00:18:05;101037.75;;;22.98;67.31
21357;BME280;10836;53.068;18.234;2022-07-22T00:20:32;101026.72;;;23.01;67.11
21357;BME280;10836;53.068;18.234;2022-07-22T00:22:59;101027.06;;;23.00;67.24
21357;BME280;10836;53.068;18.234;2022-07-22T00:25:26;101031.47;;;23.01;67.04
21357;BME280;10836;53.068;18.234;2022-07-22T00:27:55;101024.31;;;22.87;67.82
21357;BME280;10836;53.068;18.234;2022-07-22T00:30:22;101018.41;;;22.89;67.79
21357;BME280;10836;53.068;18.234;2022-07-22T00:32:49;101024.66;;;22.86;67.93
21357;BME280;10836;53.068;18.234;2022-07-22T00:35:17;101014.78;;;22.76;68.38
21357;BME280;10836;53.068;18.234;2022-07-22T00:37:45;101012.09;;;22.68;68.87
21357;BME280;10836;53.068;18.234;2022-07-22T00:40:13;101011.97;;;22.64;69.04
21357;BME280;10836;53.068;18.234;2022-07-22T00:42:40;101013.38;;;22.58;69.48
21357;BME280;10836;53.068;18.234;2022-07-22T00:45:08;101010.94;;;22.56;69.90
21357;BME280;10836;53.068;18.234;2022-07-22T00:47:36;101010.72;;;22.49;70.25
21357;BME280;10836;53.068;18.234;2022-07-22T00:50:04;101017.78;;;22.47;70.54
21357;BME280;10836;53.068;18.234;2022-07-22T00:52:33;101008.16;;;22.44;70.99
21357;BME280;10836;53.068;18.234;2022-07-22T00:55:01;101008.03;;;22.41;71.20
21357;BME280;10836;53.068;18.234;2022-07-22T00:57:28;101016.47;;;22.32;71.71
21357;BME280;10836;53.068;18.234;2022-07-22T00:59:55;101002.53;;;22.20;72.32
21357;BME280;10836;53.068;18.234;2022-07-22T01:02:23;101006.47;;;22.19;72.38
21357;BME280;10836;53.068;18.234;2022-07-22T01:04:50;101001.38;;;22.21;72.24
21357;BME280;10836;53.068;18.234;2022-07-22T01:07:17;101007.28;;;22.19;71.99
21357;BME280;10836;53.068;18.234;2022-07-22T01:09:45;101003.81;;;22.22;71.66
21357;BME280;10836;53.068;18.234;2022-07-22T01:12:12;101002.78;;;22.27;71.29
21357;BME280;10836;53.068;18.234;2022-07-22T01:14:40;101006.94;;;22.21;71.31
21357;BME280;10836;53.068;18.234;2022-07-22T01:17:07;101021.09;;;22.28;70.61
21357;BME280;10836;53.068;18.234;2022-07-22T01:19:37;101024.13;;;22.35;69.84
21357;BME280;10836;53.068;18.234;2022-07-22T01:22:05;101018.00;;;22.42;69.80
21357;BME280;10836;53.068;18.234;2022-07-22T01:24:33;101023.91;;;22.40;70.17
21357;BME280;10836;53.068;18.234;2022-07-22T01:27:01;101024.59;;;22.37;70.36
21357;BME280;10836;53.068;18.234;2022-07-22T01:29:28;101025.28;;;22.34;69.92
21357;BME280;10836;53.068;18.234;2022-07-22T01:31:55;101028.41;;;22.33;69.71
21357;BME280;10836;53.068;18.234;2022-07-22T01:34:23;101026.44;;;22.33;70.10
21357;BME280;10836;53.068;18.234;2022-07-22T01:36:52;101033.53;;;22.43;69.73
21357;BME280;10836;53.068;18.234;2022-07-22T01:39:19;101039.22;;;22.46;69.48
21357;BME280;10836;53.068;18.234;2022-07-22T01:41:46;101042.03;;;22.46;69.47
21357;BME280;10836;53.068;18.234;2022-07-22T01:44:14;101051.06;;;22.43;69.88
21357;BME280;10836;53.068;18.234;2022-07-22T01:46:42;101045.38;;;22.40;70.25
21357;BME280;10836;53.068;18.234;2022-07-22T01:49:09;101048.50;;;22.38;70.57
21357;BME280;10836;53.068;18.234;2022-07-22T01:51:38;101048.75;;;22.45;70.31
21357;BME280;10836;53.068;18.234;2022-07-22T01:54:06;101047.34;;;22.51;70.17
21357;BME280;10836;53.068;18.234;2022-07-22T01:56:33;101054.31;;;22.45;70.33
21357;BME280;10836;53.068;18.234;2022-07-22T01:59:00;101041.78;;;22.51;70.52
21357;BME280;10836;53.068;18.234;2022-07-22T02:01:29;101046.44;;;22.47;70.18
21357;BME280;10836;53.068;18.234;2022-07-22T02:03:56;101051.16;;;22.35;71.36
21357;BME280;10836;53.068;18.234;2022-07-22T02:06:23;101048.94;;;22.28;72.15
21357;BME280;10836;53.068;18.234;2022-07-22T02:08:52;101037.78;;;22.28;72.27
21357;BME280;10836;53.068;18.234;2022-07-22T02:11:44;101032.00;;;22.33;71.58
21357;BME280;10836;53.068;18.234;2022-07-22T02:14:14;101039.53;;;22.33;71.60
21357;BME280;10836;53.068;18.234;2022-07-22T02:16:41;101050.16;;;22.18;72.22
21357;BME280;10836;53.068;18.234;2022-07-22T02:19:10;101056.41;;;22.03;73.26
21357;BME280;10836;53.068;18.234;2022-07-22T02:21:38;101056.75;;;22.02;73.38
21357;BME280;10836;53.068;18.234;2022-07-22T02:24:05;101063.16;;;21.94;74.00
21357;BME280;10836;53.068;18.234;2022-07-22T02:26:32;101059.44;;;21.89;74.22
21357;BME280;10836;53.068;18.234;2022-07-22T02:28:59;101066.34;;;21.83;74.41
21357;BME280;10836;53.068;18.234;2022-07-22T02:31:27;101068.88;;;21.76;75.25
21357;BME280;10836;53.068;18.234;2022-07-22T02:33:54;101055.38;;;21.66;76.00
21357;BME280;10836;53.068;18.234;2022-07-22T02:36:27;101070.84;;;21.55;76.83
21357;BME280;10836;53.068;18.234;2022-07-22T02:38:56;101054.31;;;21.58;77.09
21357;BME280;10836;53.068;18.234;2022-07-22T02:41:24;101057.22;;;21.62;76.02
21357;BME280;10836;53.068;18.234;2022-07-22T02:43:55;101061.97;;;21.41;77.09
21357;BME280;10836;53.068;18.234;2022-07-22T02:46:24;101070.81;;;21.34;77.66
21357;BME280;10836;53.068;18.234;2022-07-22T02:48:51;101072.97;;;21.29;78.60
21357;BME280;10836;53.068;18.234;2022-07-22T02:51:21;101065.81;;;21.28;78.35
21357;BME280;10836;53.068;18.234;2022-07-22T02:53:48;101057.00;;;21.25;78.43
21357;BME280;10836;53.068;18.234;2022-07-22T02:56:16;101053.72;;;21.23;79.23
21357;BME280;10836;53.068;18.234;2022-07-22T02:58:43;101046.06;;;21.20;79.41
21357;BME280;10836;53.068;18.234;2022-07-22T03:01:10;101050.00;;;21.19;79.70
21357;BME280;10836;53.068;18.234;2022-07-22T03:03:47;101050.53;;;21.13;79.83
21357;BME280;10836;53.068;18.234;2022-07-22T03:06:14;101056.78;;;21.01;80.97
21357;BME280;10836;53.068;18.234;2022-07-22T03:08:49;101054.41;;;20.91;81.99
21357;BME280;10836;53.068;18.234;2022-07-22T03:11:16;101059.09;;;20.70;83.35
21357;BME280;10836;53.068;18.234;2022-07-22T03:13:43;101057.13;;;20.70;84.11
21357;BME280;10836;53.068;18.234;2022-07-22T03:16:11;101061.91;;;20.90;82.57
21357;BME280;10836;53.068;18.234;2022-07-22T03:18:38;101057.97;;;20.91;82.27
21357;BME280;10836;53.068;18.234;2022-07-22T03:21:05;101065.97;;;20.93;82.34
21357;BME280;10836;53.068;18.234;2022-07-22T03:23:32;101072.97;;;20.99;82.19
21357;BME280;10836;53.068;18.234;2022-07-22T03:26:00;101080.63;;;21.02;82.19
21357;BME280;10836;53.068;18.234;2022-07-22T03:28:28;101082.84;;;21.17;81.47
21357;BME280;10836;53.068;18.234;2022-07-22T03:30:56;101097.50;;;21.27;80.84
21357;BME280;10836;53.068;18.234;2022-07-22T03:33:23;101099.13;;;21.28;80.74
21357;BME280;10836;53.068;18.234;2022-07-22T03:35:51;101095.38;;;21.23;80.80
21357;BME280;10836;53.068;18.234;2022-07-22T03:38:18;101099.28;;;21.31;80.72
21357;BME280;10836;53.068;18.234;2022-07-22T03:40:47;101108.84;;;21.42;80.35
21357;BME280;10836;53.068;18.234;2022-07-22T03:43:14;101113.22;;;21.52;79.48
21357;BME280;10836;53.068;18.234;2022-07-22T03:45:41;101114.22;;;21.68;78.85
21357;BME280;10836;53.068;18.234;2022-07-22T03:48:10;101120.59;;;21.89;77.46
21357;BME280;10836;53.068;18.234;2022-07-22T03:50:38;101121.41;;;22.11;76.09
21357;BME280;10836;53.068;18.234;2022-07-22T03:53:06;101120.59;;;22.10;75.79
21357;BME280;10836;53.068;18.234;2022-07-22T03:55:37;101119.88;;;22.34;74.89
21357;BME280;10836;53.068;18.234;2022-07-22T03:58:05;101124.63;;;22.34;75.00
21357;BME280;10836;53.068;18.234;2022-07-22T04:00:32;101115.25;;;22.38;74.44
21357;BME280;10836;53.068;18.234;2022-07-22T04:03:03;101116.56;;;22.53;73.83
21357;BME280;10836;53.068;18.234;2022-07-22T04:05:49;101123.66;;;22.50;73.54
21357;BME280;10836;53.068;18.234;2022-07-22T04:08:25;101120.38;;;22.36;74.83
21357;BME280;10836;53.068;18.234;2022-07-22T04:10:52;101103.25;;;22.58;74.44
21357;BME280;10836;53.068;18.234;2022-07-22T04:13:20;101090.25;;;22.63;74.96
21357;BME280;10836;53.068;18.234;2022-07-22T04:15:52;101091.72;;;22.81;73.92
21357;BME280;10836;53.068;18.234;2022-07-22T04:18:19;101105.75;;;22.97;73.46
21357;BME280;10836;53.068;18.234;2022-07-22T04:20:46;101104.50;;;22.94;73.35
21357;BME280;10836;53.068;18.234;2022-07-22T04:23:16;101104.72;;;23.01;73.75
21357;BME280;10836;53.068;18.234;2022-07-22T04:25:51;101098.44;;;23.04;73.16
21357;BME280;10836;53.068;18.234;2022-07-22T04:28:18;101094.28;;;23.22;72.86
21357;BME280;10836;53.068;18.234;2022-07-22T04:30:45;101086.16;;;23.17;72.67
21357;BME280;10836;53.068;18.234;2022-07-22T04:33:12;101081.28;;;23.14;73.27
21357;BME280;10836;53.068;18.234;2022-07-22T04:35:40;101074.66;;;23.19;73.01
21357;BME280;10836;53.068;18.234;2022-07-22T04:38:12;101075.94;;;23.21;73.48
21357;BME280;10836;53.068;18.234;2022-07-22T04:40:46;101079.38;;;23.55;71.14
21357;BME280;10836;53.068;18.234;2022-07-22T04:43:22;101084.56;;;23.69;69.46
21357;BME280;10836;53.068;18.234;2022-07-22T04:45:49;101081.78;;;23.97;67.96
21357;BME280;10836;53.068;18.234;2022-07-22T04:48:17;101102.03;;;23.94;67.70
21357;BME280;10836;53.068;18.234;2022-07-22T04:50:45;101093.13;;;24.16;67.26
21357;BME280;10836;53.068;18.234;2022-07-22T04:53:12;101087.94;;;24.30;67.85
21357;BME280;10836;53.068;18.234;2022-07-22T04:55:41;101092.75;;;23.89;68.04
21357;BME280;10836;53.068;18.234;2022-07-22T04:58:08;101089.81;;;24.26;68.24
21357;BME280;10836;53.068;18.234;2022-07-22T05:00:45;101092.97;;;24.25;67.39
21357;BME280;10836;53.068;18.234;2022-07-22T05:03:14;101093.19;;;24.47;66.11
21357;BME280;10836;53.068;18.234;2022-07-22T05:05:42;101098.53;;;24.52;66.00
21357;BME280;10836;53.068;18.234;2022-07-22T05:08:11;101104.19;;;24.56;64.68
21357;BME280;10836;53.068;18.234;2022-07-22T05:10:39;101103.75;;;24.70;64.86
21357;BME280;10836;53.068;18.234;2022-07-22T05:13:06;101101.06;;;24.89;63.29
21357;BME280;10836;53.068;18.234;2022-07-22T05:15:34;101092.66;;;25.20;62.67
21357;BME280;10836;53.068;18.234;2022-07-22T05:18:01;101088.69;;;25.22;62.37
21357;BME280;10836;53.068;18.234;2022-07-22T05:20:31;101097.97;;;25.26;61.03
21357;BME280;10836;53.068;18.234;2022-07-22T05:22:58;101109.22;;;25.45;62.62
21357;BME280;10836;53.068;18.234;2022-07-22T05:25:29;101123.03;;;25.22;64.11
21357;BME280;10836;53.068;18.234;2022-07-22T05:27:57;101128.28;;;24.92;65.78
21357;BME280;10836;53.068;18.234;2022-07-22T05:30:29;101124.13;;;24.86;66.16
21357;BME280;10836;53.068;18.234;2022-07-22T05:32:57;101124.44;;;24.97;65.49
21357;BME280;10836;53.068;18.234;2022-07-22T05:35:43;101128.91;;;25.33;64.30
21357;BME280;10836;53.068;18.234;2022-07-22T05:38:10;101134.97;;;25.03;64.49
21357;BME280;10836;53.068;18.234;2022-07-22T05:40:37;101130.03;;;25.12;63.89
21357;BME280;10836;53.068;18.234;2022-07-22T05:43:05;101140.19;;;25.05;63.36
21357;BME280;10836;53.068;18.234;2022-07-22T05:45:32;101139.78;;;24.75;65.77
21357;BME280;10836;53.068;18.234;2022-07-22T05:48:00;101155.28;;;24.57;64.94
21357;BME280;10836;53.068;18.234;2022-07-22T05:50:29;101197.44;;;24.39;66.89
21357;BME280;10836;53.068;18.234;2022-07-22T05:52:57;101228.59;;;24.41;67.21
21357;BME280;10836;53.068;18.234;2022-07-22T05:55:24;101238.91;;;24.13;67.76
21357;BME280;10836;53.068;18.234;2022-07-22T05:57:52;101256.16;;;23.78;72.91
21357;BME280;10836;53.068;18.234;2022-07-22T06:00:19;101258.56;;;23.31;81.22
21357;BME280;10836;53.068;18.234;2022-07-22T06:02:46;101261.50;;;23.02;85.64
21357;BME280;10836;53.068;18.234;2022-07-22T06:05:19;101255.84;;;22.56;91.44
21357;BME280;10836;53.068;18.234;2022-07-22T06:08:05;101258.59;;;22.44;95.75
21357;BME280;10836;53.068;18.234;2022-07-22T06:10:40;101249.63;;;22.18;95.60
21357;BME280;10836;53.068;18.234;2022-07-22T06:13:08;101242.44;;;21.87;99.12
21357;BME280;10836;53.068;18.234;2022-07-22T06:15:37;101258.03;;;21.50;100.00
21357;BME280;10836;53.068;18.234;2022-07-22T06:18:04;101253.25;;;21.21;100.00
21357;BME280;10836;53.068;18.234;2022-07-22T06:20:31;101253.25;;;21.21;100.00
21357;BME280;10836;53.068;18.234;2022-07-22T06:22:58;101247.69;;;21.13;100.00
21357;BME280;10836;53.068;18.234;2022-07-22T06:25:25;101243.31;;;21.03;100.00
21357;BME280;10836;53.068;18.234;2022-07-22T06:28:26;101227.97;;;20.97;100.00
21357;BME280;10836;53.068;18.234;2022-07-22T06:30:54;101217.66;;;21.06;100.00
21357;BME280;10836;53.068;18.234;2022-07-22T06:33:22;101198.06;;;21.03;100.00
21357;BME280;10836;53.068;18.234;2022-07-22T06:35:49;101226.88;;;20.72;100.00
21357;BME280;10836;53.068;18.234;2022-07-22T06:38:17;101220.53;;;20.54;100.00
21357;BME280;10836;53.068;18.234;2022-07-22T06:41:13;101195.97;;;20.91;100.00
21357;BME280;10836;53.068;18.234;2022-07-22T06:43:59;101176.50;;;21.00;100.00
21357;BME280;10836;53.068;18.234;2022-07-22T06:46:50;101189.56;;;20.99;100.00
21357;BME280;10836;53.068;18.234;2022-07-22T06:49:20;101160.84;;;20.95;100.00
21357;BME280;10836;53.068;18.234;2022-07-22T06:51:51;101132.25;;;21.03;100.00
21357;BME280;10836;53.068;18.234;2022-07-22T06:54:18;101118.91;;;20.88;100.00
21357;BME280;10836;53.068;18.234;2022-07-22T06:56:47;101097.50;;;20.88;100.00
21357;BME280;10836;53.068;18.234;2022-07-22T06:59:19;101088.19;;;20.93;100.00
21357;BME280;10836;53.068;18.234;2022-07-22T07:01:46;101099.06;;;21.07;100.00
21357;BME280;10836;53.068;18.234;2022-07-22T07:04:16;101098.66;;;21.25;100.00
21357;BME280;10836;53.068;18.234;2022-07-22T07:06:45;101088.31;;;21.35;100.00
21357;BME280;10836;53.068;18.234;2022-07-22T07:09:16;101064.91;;;21.65;100.00
21357;BME280;10836;53.068;18.234;2022-07-22T07:11:55;101043.00;;;21.97;100.00
21357;BME280;10836;53.068;18.234;2022-07-22T07:14:41;101034.16;;;22.15;100.00
21357;BME280;10836;53.068;18.234;2022-07-22T07:17:28;101031.53;;;22.31;100.00
21357;BME280;10836;53.068;18.234;2022-07-22T07:19:55;101029.72;;;22.47;100.00
21357;BME280;10836;53.068;18.234;2022-07-22T07:22:23;101038.53;;;22.49;100.00
21357;BME280;10836;53.068;18.234;2022-07-22T07:24:51;101042.59;;;22.52;100.00
21357;BME280;10836;53.068;18.234;2022-07-22T07:27:18;101060.81;;;22.49;98.98
21357;BME280;10836;53.068;18.234;2022-07-22T07:29:48;101080.81;;;23.00;100.00
21357;BME280;10836;53.068;18.234;2022-07-22T07:32:15;101106.53;;;23.46;98.48
21357;BME280;10836;53.068;18.234;2022-07-22T07:34:42;101106.75;;;24.33;92.65
21357;BME280;10836;53.068;18.234;2022-07-22T07:37:09;101121.50;;;24.93;89.53
21357;BME280;10836;53.068;18.234;2022-07-22T07:39:39;101131.59;;;25.13;83.61
21357;BME280;10836;53.068;18.234;2022-07-22T07:42:07;101147.56;;;23.98;90.37
21357;BME280;10836;53.068;18.234;2022-07-22T07:44:34;101150.38;;;24.97;88.74
21357;BME280;10836;53.068;18.234;2022-07-22T07:47:03;101146.22;;;25.23;80.68
21357;BME280;10836;53.068;18.234;2022-07-22T07:49:31;101145.75;;;25.36;79.70
21357;BME280;10836;53.068;18.234;2022-07-22T07:51:58;101143.69;;;25.17;81.85
21357;BME280;10836;53.068;18.234;2022-07-22T07:54:26;101139.56;;;24.96;81.17
21357;BME280;10836;53.068;18.234;2022-07-22T07:57:02;101135.66;;;26.02;75.53
21357;BME280;10836;53.068;18.234;2022-07-22T07:59:29;101134.00;;;26.59;78.10
21357;BME280;10836;53.068;18.234;2022-07-22T08:02:01;101132.09;;;26.43;76.75
21357;BME280;10836;53.068;18.234;2022-07-22T08:04:29;101137.19;;;27.26;69.43
21357;BME280;10836;53.068;18.234;2022-07-22T08:07:17;101135.81;;;26.70;64.89
21357;BME280;10836;53.068;18.234;2022-07-22T08:09:46;101144.59;;;26.69;63.73
21357;BME280;10836;53.068;18.234;2022-07-22T08:12:27;101142.63;;;26.50;66.20
21357;BME280;10836;53.068;18.234;2022-07-22T08:15:12;101153.22;;;27.02;62.43
21357;BME280;10836;53.068;18.234;2022-07-22T08:17:50;101152.28;;;27.17;63.56
21357;BME280;10836;53.068;18.234;2022-07-22T08:20:22;101155.25;;;26.82;64.38
21357;BME280;10836;53.068;18.234;2022-07-22T08:22:50;101151.97;;;26.77;63.48
21357;BME280;10836;53.068;18.234;2022-07-22T08:25:19;101152.72;;;27.20;66.01
21357;BME280;10836;53.068;18.234;2022-07-22T08:27:46;101152.19;;;26.91;65.11
21357;BME280;10836;53.068;18.234;2022-07-22T08:30:16;101153.00;;;26.92;63.85
21357;BME280;10836;53.068;18.234;2022-07-22T08:32:43;101156.72;;;27.19;62.41
21357;BME280;10836;53.068;18.234;2022-07-22T08:35:10;101162.75;;;27.47;61.24
21357;BME280;10836;53.068;18.234;2022-07-22T08:37:38;101169.53;;;27.69;62.81
21357;BME280;10836;53.068;18.234;2022-07-22T08:40:07;101171.97;;;27.70;61.02
21357;BME280;10836;53.068;18.234;2022-07-22T08:42:39;101173.09;;;27.43;60.11
21357;BME280;10836;53.068;18.234;2022-07-22T08:45:08;101177.91;;;26.74;63.26
21357;BME280;10836;53.068;18.234;2022-07-22T08:47:45;101175.25;;;26.81;66.05
21357;BME280;10836;53.068;18.234;2022-07-22T08:50:22;101178.34;;;26.76;64.22
21357;BME280;10836;53.068;18.234;2022-07-22T08:52:54;101173.09;;;27.43;62.13
21357;BME280;10836;53.068;18.234;2022-07-22T08:55:22;101176.47;;;27.52;63.06
21357;BME280;10836;53.068;18.234;2022-07-22T08:57:49;101173.22;;;27.50;62.95
21357;BME280;10836;53.068;18.234;2022-07-22T09:00:21;101185.63;;;27.75;62.48
21357;BME280;10836;53.068;18.234;2022-07-22T09:02:49;101190.56;;;28.12;61.84
21357;BME280;10836;53.068;18.234;2022-07-22T09:05:17;101189.75;;;28.41;62.20
21357;BME280;10836;53.068;18.234;2022-07-22T09:08:06;101191.03;;;28.47;56.80
21357;BME280;10836;53.068;18.234;2022-07-22T09:10:52;101200.66;;;28.46;59.59
21357;BME280;10836;53.068;18.234;2022-07-22T09:13:20;101199.22;;;28.00;58.83
21357;BME280;10836;53.068;18.234;2022-07-22T09:16:06;101188.19;;;27.35;62.00
21357;BME280;10836;53.068;18.234;2022-07-22T09:18:48;101189.81;;;26.90;63.94
21357;BME280;10836;53.068;18.234;2022-07-22T09:21:43;101175.66;;;27.52;63.89
21357;BME280;10836;53.068;18.234;2022-07-22T09:24:32;101177.47;;;27.63;63.14
21357;BME280;10836;53.068;18.234;2022-07-22T09:27:24;101180.00;;;28.32;59.21
21357;BME280;10836;53.068;18.234;2022-07-22T09:30:17;101172.94;;;28.11;59.41
21357;BME280;10836;53.068;18.234;2022-07-22T09:32:59;101173.16;;;28.66;58.17
21357;BME280;10836;53.068;18.234;2022-07-22T09:35:43;101182.28;;;28.90;60.37
21357;BME280;10836;53.068;18.234;2022-07-22T09:38:27;101178.75;;;28.63;58.70
21357;BME280;10836;53.068;18.234;2022-07-22T09:40:58;101181.13;;;28.94;57.79
21357;BME280;10836;53.068;18.234;2022-07-22T09:43:28;101179.56;;;29.48;57.11
21357;BME280;10836;53.068;18.234;2022-07-22T09:46:13;101171.06;;;29.99;56.27
21357;BME280;10836;53.068;18.234;2022-07-22T09:49:07;101168.72;;;30.12;56.17
21357;BME280;10836;53.068;18.234;2022-07-22T09:51:47;101167.00;;;31.16;51.88
21357;BME280;10836;53.068;18.234;2022-07-22T09:54:20;101164.44;;;31.96;47.82
21357;BME280;10836;53.068;18.234;2022-07-22T09:56:50;101170.56;;;31.69;49.01
21357;BME280;10836;53.068;18.234;2022-07-22T09:59:19;101157.50;;;30.23;52.73
21357;BME280;10836;53.068;18.234;2022-07-22T10:02:16;101168.31;;;30.10;51.88
21357;BME280;10836;53.068;18.234;2022-07-22T10:04:46;101165.13;;;29.53;53.97
21357;BME280;10836;53.068;18.234;2022-07-22T10:07:16;101162.31;;;30.19;51.62
21357;BME280;10836;53.068;18.234;2022-07-22T10:09:46;101163.94;;;30.23;51.15
21357;BME280;10836;53.068;18.234;2022-07-22T10:12:14;101155.97;;;29.12;52.71
21357;BME280;10836;53.068;18.234;2022-07-22T10:14:43;101157.03;;;28.60;54.24
21357;BME280;10836;53.068;18.234;2022-07-22T10:17:13;101154.56;;;28.88;57.50
21357;BME280;10836;53.068;18.234;2022-07-22T10:19:45;101151.81;;;30.12;51.11
21357;BME280;10836;53.068;18.234;2022-07-22T10:25:14;101154.66;;;30.16;47.58
21357;BME280;10836;53.068;18.234;2022-07-22T10:27:50;101159.19;;;30.49;47.38
21357;BME280;10836;53.068;18.234;2022-07-22T10:33:13;101147.19;;;30.87;46.00
21357;BME280;10836;53.068;18.234;2022-07-22T10:38:11;101160.06;;;30.63;43.92
21357;BME280;10836;53.068;18.234;2022-07-22T10:40:50;101146.31;;;31.86;42.19
21357;BME280;10836;53.068;18.234;2022-07-22T10:43:23;101142.28;;;31.87;39.93
21357;BME280;10836;53.068;18.234;2022-07-22T10:45:58;101138.72;;;31.58;40.03
21357;BME280;10836;53.068;18.234;2022-07-22T10:53:57;101138.28;;;31.78;39.62
21357;BME280;10836;53.068;18.234;2022-07-22T10:56:33;101129.00;;;31.63;40.34
21357;BME280;10836;53.068;18.234;2022-07-22T10:59:15;101126.94;;;31.92;40.60
21357;BME280;10836;53.068;18.234;2022-07-22T11:01:45;101126.63;;;31.58;38.65
21357;BME280;10836;53.068;18.234;2022-07-22T11:04:25;101121.28;;;31.92;38.70
21357;BME280;10836;53.068;18.234;2022-07-22T11:06:54;101127.59;;;32.31;38.08
21357;BME280;10836;53.068;18.234;2022-07-22T11:09:32;101130.44;;;32.24;37.58
21357;BME280;10836;53.068;18.234;2022-07-22T11:11:59;101120.84;;;32.00;38.58
21357;BME280;10836;53.068;18.234;2022-07-22T11:14:31;101119.28;;;32.65;37.62
21357;BME280;10836;53.068;18.234;2022-07-22T11:17:08;101128.69;;;32.48;38.87
21357;BME280;10836;53.068;18.234;2022-07-22T11:19:36;101114.88;;;31.66;39.11
21357;BME280;10836;53.068;18.234;2022-07-22T11:24:34;101113.38;;;31.05;40.96
21357;BME280;10836;53.068;18.234;2022-07-22T11:27:02;101125.41;;;31.59;40.61
21357;BME280;10836;53.068;18.234;2022-07-22T11:29:39;101120.97;;;31.58;40.63
21357;BME280;10836;53.068;18.234;2022-07-22T11:32:11;101122.13;;;31.82;38.36
21357;BME280;10836;53.068;18.234;2022-07-22T11:34:40;101129.06;;;30.88;41.19
21357;BME280;10836;53.068;18.234;2022-07-22T11:37:19;101114.09;;;30.52;40.52
21357;BME280;10836;53.068;18.234;2022-07-22T11:39:46;101122.03;;;30.11;40.96
21357;BME280;10836;53.068;18.234;2022-07-22T11:42:13;101118.06;;;30.23;41.72
21357;BME280;10836;53.068;18.234;2022-07-22T11:44:41;101118.84;;;30.16;41.53
21357;BME280;10836;53.068;18.234;2022-07-22T11:47:09;101113.25;;;30.37;40.84
21357;BME280;10836;53.068;18.234;2022-07-22T11:49:38;101118.19;;;31.33;40.62
21357;BME280;10836;53.068;18.234;2022-07-22T11:52:08;101119.69;;;31.84;40.37
21357;BME280;10836;53.068;18.234;2022-07-22T11:54:42;101120.53;;;31.70;39.97
21357;BME280;10836;53.068;18.234;2022-07-22T11:57:12;101128.66;;;30.86;41.11
21357;BME280;10836;53.068;18.234;2022-07-22T11:59:39;101127.03;;;30.78;41.66
21357;BME280;10836;53.068;18.234;2022-07-22T12:02:07;101121.31;;;30.42;42.32
21357;BME280;10836;53.068;18.234;2022-07-22T12:04:37;101119.66;;;30.20;42.42
21357;BME280;10836;53.068;18.234;2022-07-22T12:07:05;101110.03;;;30.39;41.92
21357;BME280;10836;53.068;18.234;2022-07-22T12:09:35;101117.63;;;30.17;41.62
21357;BME280;10836;53.068;18.234;2022-07-22T12:12:04;101110.41;;;30.23;42.65
21357;BME280;10836;53.068;18.234;2022-07-22T12:14:33;101110.88;;;30.47;40.57
21357;BME280;10836;53.068;18.234;2022-07-22T12:17:03;101108.84;;;30.51;40.73
21357;BME280;10836;53.068;18.234;2022-07-22T12:19:33;101108.84;;;30.43;41.56
21357;BME280;10836;53.068;18.234;2022-07-22T12:22:08;101116.41;;;30.11;42.17
21357;BME280;10836;53.068;18.234;2022-07-22T12:24:38;101110.53;;;30.59;41.50
21357;BME280;10836;53.068;18.234;2022-07-22T12:27:08;101114.16;;;31.05;40.91
21357;BME280;10836;53.068;18.234;2022-07-22T12:32:03;101085.13;;;31.37;40.56
21357;BME280;10836;53.068;18.234;2022-07-22T12:34:42;101099.59;;;30.32;40.73
21357;BME280;10836;53.068;18.234;2022-07-22T12:40:11;101096.78;;;29.53;43.36
21357;BME280;10836;53.068;18.234;2022-07-22T12:42:47;101100.78;;;29.48;42.67
21357;BME280;10836;53.068;18.234;2022-07-22T12:45:28;101093.59;;;29.54;43.70
21357;BME280;10836;53.068;18.234;2022-07-22T12:50:40;101097.50;;;29.39;42.20
21357;BME280;10836;53.068;18.234;2022-07-22T12:53:10;101095.78;;;29.24;43.01
21357;BME280;10836;53.068;18.234;2022-07-22T12:55:44;101098.69;;;29.34;43.31
21357;BME280;10836;53.068;18.234;2022-07-22T12:58:14;101098.25;;;29.29;43.13
21357;BME280;10836;53.068;18.234;2022-07-22T13:00:45;101098.06;;;29.07;45.25
21357;BME280;10836;53.068;18.234;2022-07-22T13:03:15;101103.34;;;29.12;45.06
21357;BME280;10836;53.068;18.234;2022-07-22T13:05:50;101098.91;;;29.11;45.07
21357;BME280;10836;53.068;18.234;2022-07-22T13:08:18;101102.94;;;28.70;45.55
21357;BME280;10836;53.068;18.234;2022-07-22T13:10:49;101113.03;;;28.74;46.50
21357;BME280;10836;53.068;18.234;2022-07-22T13:13:16;101119.50;;;28.38;46.20
21357;BME280;10836;53.068;18.234;2022-07-22T13:15:44;101112.31;;;28.40;47.06
21357;BME280;10836;53.068;18.234;2022-07-22T13:18:11;101118.56;;;28.27;48.50
21357;BME280;10836;53.068;18.234;2022-07-22T13:20:38;101113.47;;;27.72;48.78